Station: Puckapunyal West (Defence)  

  Atmospheric Gas Attenuation - ITU Rec 676-11   ----------------- dB/100km -----------------
Date Time Temp RH % AH g/m3 Dew Point Wind Direction Speed kph Gust kph Barometer mB Rainfall Since 9am 24GHz 47GHz 76GHz 122GHz 134GHz 241GHz
08/05 12:30 16 60 8.17 8.2 26 44 1013.1 0 18.6 24.6 37.0 97.1 90.2 310.0
08/05 12:20 15.9 57 7.72 7.4 28 35 1013.1 0 17.6 23.9 35.4 92.7 84.7 290.6
08/05 12:10 15.2 61 7.92 7.7 22 28 1013.1 0 18.1 24.4 36.5 95.5 87.9 302.0
08/05 12:00 15.3 61 7.97 7.8 28 44 1013.1 0 18.2 24.5 36.6 95.9 88.5 303.9
08/05 11:50 15.7 61 8.16 8.2 30 41 1013.1 0 18.6 24.7 37.1 97.4 90.4 310.7
08/05 11:40 15 63 8.08 8 30 35 1013.1 0 18.4 24.7 37.2 97.4 90.2 309.9
08/05 11:30 14.5 65 8.08 8 20 30 1013.1 0 18.4 24.9 37.4 98.0 90.8 311.9
08/05 11:20 15.1 63 8.13 8.1 24 32 1013.1 0 18.5 24.8 37.3 97.8 90.7 311.7
08/05 11:10 14.5 66 8.21 8.2 20 28 1013.1 0 18.7 25.1 37.9 99.4 92.4 317.7
08/05 11:00 14.3 67 8.23 8.3 20 32 1013.1 0 18.8 25.2 38.1 99.9 92.9 319.4
08/05 10:50 14.2 67 8.18 8.3 13 15 1013.1 0 18.7 25.1 37.9 99.5 92.4 317.6
08/05 10:40 14.3 67 8.23 8.4 17 20 1013.1 0 18.8 25.2 38.1 99.9 92.9 319.4
08/05 10:30 14.2 68 8.3 8.4 22 33 1013.1 0 18.9 25.3 38.4 100.7 94.0 323.0
08/05 10:20 14 68 8.2 8.2 26 32 1013.1 0 18.7 25.2 38.1 99.9 92.9 319.3
08/05 10:10 14.3 69 8.48 8.7 28 37 1013.1 0 19.3 25.6 39.1 102.5 96.2 330.8
08/05 10:00 14.6 69 8.63 9 26 44 1013.1 0 19.6 25.7 39.5 103.7 97.8 336.4
08/05 09:50 14 68 8.2 8.2 22 28 1013.1 0 18.7 25.2 38.1 99.9 92.9 319.3
08/05 09:40 13.8 70 8.34 8.4 19 22 1013.1 0 19.0 25.5 38.8 101.7 95.0 326.5
08/05 09:30 13.5 71 8.31 8.4 22 30 1013.1 0 19.0 25.5 38.8 101.7 94.9 326.4
08/05 09:20 13.5 73 8.54 8.7 17 22 1013.1 0 19.5 25.9 39.7 104.2 98.0 337.0
08/05 09:10 13.2 75 8.61 9 7 9 1013.1 0 19.6 26.1 40.1 105.3 99.3 341.5
08/05 09:00 13.1 81 9.24 9.9 6 11 1013.1 0 21.0 27.2 42.8 112.4 107.9 371.7
08/05 08:50 12.4 82 8.96 9.4 4 4 1013.1 0 20.4 26.9 42.0 110.3 105.1 361.6
08/05 08:40 12.2 82 8.85 9.2 6 7 1013.1 0 20.2 26.8 41.6 109.3 103.8 357.3
08/05 08:30 11.9 85 9 9.5 6 9 1013.1 0 20.5 27.1 42.4 111.4 106.3 365.9
08/05 08:20 11.3 86 8.77 9 9 11 1013.1 0 20.1 26.9 41.8 109.7 104.0 357.6
08/05 08:10 10.8 87 8.6 8.7 7 7 1013.1 0 19.7 26.8 41.3 108.5 102.3 351.7
08/05 08:00 10.7 87 8.55 8.6 7 15 1013.1 0 19.6 26.7 41.2 108.1 101.7 349.7
08/05 07:50 10.8 86 8.5 8.5 11 15 1013.1 0 19.5 26.6 40.9 107.4 100.9 346.9
08/05 07:40 10.6 86 8.4 8.3 9 11 1013.1 0 19.3 26.5 40.6 106.6 99.8 343.0
08/05 07:30 10.7 86 8.45 8.5 17 22 1013.1 0 19.4 26.6 40.8 107.0 100.4 344.9
08/05 07:20 10.9 84 8.36 8.4 15 19 1013.1 0 19.2 26.3 40.3 105.7 98.9 339.7
08/05 07:10 10.9 84 8.36 8.4 19 24 1013.1 0 19.2 26.3 40.3 105.7 98.9 339.7
08/05 07:00 10.7 87 8.55 8.6 17 26 1013.1 0 19.6 26.7 41.2 108.1 101.7 349.7
08/05 06:50 10.4 87 8.39 8.3 15 20 1013.1 0 19.3 26.5 40.7 106.7 99.9 343.4
08/05 06:40 10.5 88 8.54 8.6 19 22 1013.1 0 19.6 26.8 41.2 108.3 101.9 350.2
08/05 06:30 10.5 88 8.54 8.6 20 24 1013.1 0 19.6 26.8 41.2 108.3 101.9 350.2
08/05 06:20 10.5 89 8.63 8.7 19 22 1013.1 0 19.8 26.9 41.6 109.3 103.1 354.5
08/05 06:10 10.4 89 8.58 8.6 17 20 1013.1 0 19.7 26.9 41.5 108.8 102.5 352.5
08/05 06:00 10.4 89 8.58 8.7 11 17 1013.1 0 19.7 26.9 41.5 108.8 102.5 352.5
08/05 05:50 10.5 89 8.63 8.7 11 15 1013.1 0 19.8 26.9 41.6 109.3 103.1 354.5
08/05 05:40 10.4 89 8.58 8.6 13 15 1013.1 0 19.7 26.9 41.5 108.8 102.5 352.5
08/05 05:30 10.5 89 8.63 8.8 15 20 1013.1 0 19.8 26.9 41.6 109.3 103.1 354.5
08/05 05:20 10.4 89 8.58 8.6 15 19 1013.1 0 19.7 26.9 41.5 108.8 102.5 352.5
08/05 05:10 10.3 90 8.62 8.7 15 20 1013.1 0 19.8 27.0 41.7 109.4 103.2 354.9
08/05 05:00 10.3 90 8.62 8.7 17 24 1013.1 0 19.8 27.0 41.7 109.4 103.2 354.9
08/05 04:50 10.3 89 8.53 8.5 19 20 1013.1 0 19.6 26.8 41.3 108.4 102.0 350.6
08/05 04:40 10.1 88 8.32 8.2 9 15 1013.1 0 19.2 26.5 40.5 106.4 99.4 341.3
08/05 04:30 10.2 88 8.38 8.3 11 19 1013.1 0 19.3 26.6 40.7 106.9 100.0 343.8
08/05 04:20 10 88 8.27 8.1 11 13 1013.1 0 19.1 26.5 40.4 105.9 98.8 339.4
08/05 04:10 10 87 8.18 7.9 13 19 1013.1 0 18.9 26.3 40.0 104.9 97.6 335.0
08/05 04:00 10.2 87 8.28 8.1 15 22 1013.1 0 19.1 26.4 40.3 105.8 98.7 339.0
08/05 03:50 9.9 87 8.13 7.8 13 15 1013.1 0 18.8 26.3 39.8 104.5 97.0 333.1
08/05 03:40 10 86 8.08 7.7 17 20 1013.1 0 18.7 26.1 39.6 103.8 96.2 330.2
08/05 03:30 10.1 85 8.04 7.7 19 30 1013.1 0 18.6 26.1 39.4 103.2 95.5 327.9
08/05 03:20 10 86 8.08 7.7 20 24 1013.1 0 18.7 26.1 39.6 103.8 96.2 330.2
08/05 03:10 9.9 85 7.94 7.6 19 20 1013.1 0 18.4 25.9 39.0 102.4 94.4 324.0
08/05 03:00 10 85 7.99 7.6 22 37 1013.1 0 18.5 26.0 39.2 102.8 95.0 326.0
08/05 02:50 9.8 85 7.89 7.4 17 22 1013.1 0 18.3 25.9 38.9 102.0 93.8 322.0
08/05 02:40 9.7 85 7.84 7.4 22 35 1013.1 0 18.2 25.8 38.7 101.6 93.3 320.1
08/05 02:30 9.7 85 7.84 7.3 22 35 1013.1 0 18.2 25.8 38.7 101.6 93.3 320.1
08/05 02:20 9.7 85 7.84 7.3 22 30 1013.1 0 18.2 25.8 38.7 101.6 93.3 320.1
08/05 02:10 9.7 84 7.75 7.1 26 35 1013.1 0 18.0 25.7 38.4 100.6 92.1 315.8
08/05 02:00 9.8 84 7.8 7.2 28 41 1013.1 0 18.1 25.7 38.5 101.0 92.6 317.7
08/05 01:50 9.7 84 7.75 7.1 26 32 1013.1 0 18.0 25.7 38.4 100.6 92.1 315.8
08/05 01:40 9.7 84 7.75 7.1 28 39 1013.1 0 18.0 25.7 38.4 100.6 92.1 315.8
08/05 01:30 9.7 84 7.75 7.1 28 43 1013.1 0 18.0 25.7 38.4 100.6 92.1 315.8
08/05 01:20 9.5 84 7.65 6.9 24 32 1013.1 0 17.8 25.6 38.0 99.7 91.0 311.8
08/05 01:10 9.5 83 7.56 6.7 28 32 1013.1 0 17.6 25.4 37.7 98.7 89.7 307.6
08/05 01:00 9.5 82 7.47 6.6 28 44 1013.1 0 17.4 25.3 37.3 97.8 88.5 303.4
08/05 00:50 9.5 81 7.38 6.5 20 24 1013.1 0 17.2 25.1 36.9 96.8 87.3 299.1
08/05 00:40 9.5 81 7.38 6.4 26 30 1013.1 0 17.2 25.1 36.9 96.8 87.3 299.1
08/05 00:30 9.6 81 7.42 6.5 24 41 1013.1 0 17.3 25.2 37.1 97.1 87.7 300.6
08/05 00:20 9.6 80 7.33 6.3 22 28 1013.1 0 17.1 25.0 36.7 96.1 86.5 296.4
08/05 00:10 9.5 81 7.38 6.4 20 24 1013.1 0 17.2 25.1 36.9 96.8 87.3 299.1
08/05 00:00 9.8 80 7.42 6.5 20 32 1013.1 0 17.2 25.1 37.0 96.8 87.5 299.9
07/05 23:50 9.7 80 7.38 6.4 24 28 1013.1 0 17.2 25.1 36.8 96.5 87.1 298.4
07/05 23:40 9.6 81 7.42 6.5 20 24 1013.1 0 17.3 25.2 37.1 97.1 87.7 300.6
07/05 23:30 9.4 82 7.42 6.5 20 30 1013.1 0 17.3 25.2 37.2 97.3 88.0 301.4
07/05 23:20 9.2 83 7.41 6.4 20 26 1013.1 0 17.2 25.3 37.2 97.5 88.1 301.7
07/05 23:10 9 82 7.23 6.2 17 19 1013.1 0 16.9 25.0 36.6 95.8 85.9 294.0
07/05 23:00 9 83 7.32 6.3 19 26 1013.1 0 17.1 25.2 36.9 96.8 87.1 298.2
07/05 22:50 8.9 82 7.19 6 22 28 1013.1 0 16.8 25.0 36.4 95.5 85.4 292.5
07/05 22:40 9.1 81 7.19 6 11 15 1013.1 0 16.8 24.9 36.4 95.2 85.2 291.7
07/05 22:30 9.1 80 7.1 5.8 17 28 1013.1 0 16.6 24.8 36.0 94.2 84.0 287.5
07/05 22:20 9.1 79 7.01 5.6 19 22 1013.1 0 16.4 24.6 35.6 93.3 82.8 283.3
07/05 22:10 9.2 77 6.88 5.5 19 24 1013.1 0 16.1 24.4 35.1 91.8 81.0 277.0
07/05 22:00 9.2 77 6.88 5.4 17 28 1013.1 0 16.1 24.4 35.1 91.8 81.0 277.0
07/05 21:50 9.3 76 6.83 5.3 17 20 1013.1 0 16.0 24.3 34.8 91.1 80.2 274.3
07/05 21:40 9.2 76 6.79 5.2 15 19 1013.1 0 15.9 24.3 34.7 90.8 79.8 272.8
07/05 21:30 9.1 76 6.75 5.1 17 30 1013.1 0 15.8 24.2 34.6 90.5 79.4 271.3
07/05 21:20 9.2 75 6.7 5 19 22 1013.1 0 15.7 24.1 34.3 89.9 78.6 268.7
07/05 21:10 9.3 75 6.74 5.1 20 26 1013.1 0 15.8 24.2 34.5 90.2 79.1 270.2
07/05 21:00 9.3 75 6.74 5.1 15 20 1013.1 0 15.8 24.2 34.5 90.2 79.1 270.2
07/05 20:50 9.3 75 6.74 5.1 15 19 1013.1 0 15.8 24.2 34.5 90.2 79.1 270.2
07/05 20:40 9.3 74 6.65 4.9 13 19 1013.1 0 15.6 24.0 34.1 89.2 77.9 266.1
07/05 20:30 9.3 73 6.56 4.7 15 20 1013.1 0 15.4 23.9 33.8 88.3 76.7 262.0
07/05 20:20 9.3 73 6.56 4.7 13 17 1013.1 0 15.4 23.9 33.8 88.3 76.7 262.0
07/05 20:10 9.4 72 6.51 4.6 17 22 1013.1 0 15.3 23.8 33.5 87.6 76.0 259.4
07/05 20:00 9.4 71 6.42 4.4 15 24 1013.1 0 15.1 23.6 33.2 86.7 74.8 255.3

Last Refresh: 08-May-2026 12:08:29

Bureau of Meteorology